KFMY/FMY METAR and TAF weather

Enter ICAO airport designator
Station Type Date Time Source
KFMY METAR 2019/10/15 21:53 UTC NOAA

KFMY 152153Z 24008KT 10SM FEW050 FEW060 30/22 A2993 RMK AO2 SLP136 T03000222 $


Station Type Date Time Source
KFMY Decoded METAR 2019/10/15 21:53 UTC NOAA

FORT MYERS PAGE FIELD, FL, United States (KFMY) 26-35N 081-52W 4M
Oct 15, 2019 - 05:53 PM EDT / 2019.10.15 2153 UTC
Wind: from the WSW (240 degrees) at 9 MPH (8 KT):0
Visibility: 10 mile(s):0
Sky conditions: mostly clear
Temperature: 86.0 F (30.0 C)
Heat index: 92.1 F (33.4 C):1
Dew Point: 72.0 F (22.2 C)
Relative Humidity: 63%
Pressure (altimeter): 29.93 in. Hg (1013 hPa)
ob: KFMY 152153Z 24008KT 10SM FEW050 FEW060 30/22 A2993 RMK AO2 SLP136 T03000222
cycle: 22

Station Type Date Time Source
KFMY TAF 2019/10/15 18:40 UTC NOAA

TAF KFMY 151738Z 1518/1618 12007KT P6SM SCT050 SCT250
FM152000 20007KT P6SM SCT050 SCT250
FM160100 VRB03KT P6SM FEW030 BKN250
FM160700 VRB03KT P6SM SCT015 BKN250
TEMPO 1609/1613 BKN015
FM161400 21007KT P6SM SCT020 BKN250
FM161700 24010KT P6SM SCT030 BKN250

Example: see airport list